Time;durP1;ratioP1;P1;durP2;ratioP2;P2;SDS_P1;SDS_P2;PMS_P1;PMS_P2;Temp;Humidity;BMP_temperature;BMP_pressure;BME280_temperature;BME280_humidity;BME280_pressure;Samples;Min_cycle;Max_cycle;Signal;HPM_P1;HPM_P2
2023/05/30 00:01:13;;;;;;;3.05;2.15;;;;;;;16.96;72.54;99000.41;4115758;28;20293;-46
2023/05/30 00:03:15;;;;;;;2.83;2.08;;;;;;;16.92;73.17;99007.63;4098861;28;20267;-46
2023/05/30 00:05:17;;;;;;;4.03;2.50;;;;;;;16.61;73.80;99003.22;4113431;28;20683;-44
2023/05/30 00:07:19;;;;;;;3.83;2.35;;;;;;;16.90;73.25;99007.03;4114074;28;20214;-44
2023/05/30 00:09:21;;;;;;;4.70;2.92;;;;;;;16.83;73.56;98997.41;4114072;28;20215;-45
2023/05/30 00:11:23;;;;;;;4.97;2.90;;;;;;;16.83;73.50;99006.50;4098595;28;20647;-47
2023/05/30 00:13:28;;;;;;;4.65;3.13;;;;;;;17.03;73.09;99000.94;4114906;28;20235;-44
2023/05/30 00:15:31;;;;;;;4.13;2.30;;;;;;;16.95;73.07;99004.28;4114339;28;20215;-45
2023/05/30 00:17:35;;;;;;;4.20;2.55;;;;;;;16.92;73.44;99004.84;4116838;28;20309;-45
2023/05/30 00:19:37;;;;;;;5.55;2.83;;;;;;;16.93;73.22;99006.50;4114361;28;20293;-45
2023/05/30 00:21:39;;;;;;;8.30;2.72;;;;;;;16.73;74.12;99016.75;4098157;28;20278;-45
2023/05/30 00:23:40;;;;;;;7.97;3.42;;;;;;;16.90;73.87;99012.56;4113316;28;20235;-45
2023/05/30 00:25:44;;;;;;;3.35;2.83;;;;;;;16.78;74.15;99009.31;4097609;28;20215;-45
2023/05/30 00:27:46;;;;;;;4.07;2.53;;;;;;;16.87;73.70;99013.16;4113483;28;20215;-46
2023/05/30 00:29:48;;;;;;;3.45;2.15;;;;;;;16.87;73.94;99007.63;4116382;28;20207;-46
2023/05/30 00:31:50;;;;;;;3.55;2.13;;;;;;;16.88;73.77;99017.56;4114425;28;20207;-44
2023/05/30 00:33:52;;;;;;;4.13;2.25;;;;;;;16.85;73.62;99020.91;4092700;28;20772;-47
2023/05/30 00:35:53;;;;;;;6.20;2.30;;;;;;;16.86;74.03;99017.03;4113940;28;20219;-44
2023/05/30 00:37:55;;;;;;;4.22;2.60;;;;;;;16.89;73.91;99016.47;4112869;28;20214;-46
2023/05/30 00:39:57;;;;;;;3.28;2.30;;;;;;;16.87;73.91;99018.69;4113819;28;20214;-45
2023/05/30 00:42:03;;;;;;;4.05;2.10;;;;;;;16.87;73.58;99013.16;4114637;28;20285;-44
2023/05/30 00:44:05;;;;;;;4.70;2.80;;;;;;;16.83;74.01;99011.22;4114250;28;20249;-46
2023/05/30 00:46:07;;;;;;;5.43;2.00;;;;;;;16.82;73.90;99012.34;4113942;28;20213;-45
2023/05/30 00:48:09;;;;;;;5.95;2.28;;;;;;;16.90;73.43;99007.03;4113449;28;20211;-45
2023/05/30 00:50:11;;;;;;;5.43;2.58;;;;;;;16.90;73.39;99006.22;4113750;28;20215;-45
2023/05/30 00:52:13;;;;;;;5.00;2.55;;;;;;;16.85;73.42;99009.84;4107672;28;20211;-45
2023/05/30 00:54:15;;;;;;;3.60;2.40;;;;;;;16.82;73.30;99010.38;4114347;28;20221;-45
2023/05/30 00:56:17;;;;;;;2.72;2.22;;;;;;;16.87;73.26;99001.25;4113738;28;20242;-45
2023/05/30 00:58:21;;;;;;;5.88;2.88;;;;;;;16.63;73.89;99005.72;4097709;28;20665;-46
2023/05/30 01:00:24;;;;;;;5.05;2.30;;;;;;;16.66;74.05;99005.97;4111717;28;20273;-45
2023/05/30 01:02:25;;;;;;;3.33;2.58;;;;;;;16.68;73.92;99003.75;4111688;28;20250;-44
2023/05/30 01:04:27;;;;;;;3.92;2.20;;;;;;;16.55;74.06;99004.31;4098003;28;20372;-44
2023/05/30 01:06:30;;;;;;;4.28;2.30;;;;;;;16.55;74.35;98997.97;4112120;28;20263;-45
2023/05/30 01:08:32;;;;;;;4.13;2.80;;;;;;;16.61;74.21;98997.69;4114422;28;20207;-45
2023/05/30 01:10:34;;;;;;;3.75;2.00;;;;;;;16.62;74.11;98999.34;4113706;28;20254;-46
2023/05/30 01:12:42;;;;;;;2.88;2.20;;;;;;;16.64;73.67;99007.38;4113353;28;20331;-45
2023/05/30 01:14:52;;;;;;;4.03;2.33;;;;;;;16.53;74.04;99012.06;4113685;28;20684;-44
2023/05/30 01:16:58;;;;;;;4.47;2.22;;;;;;;16.57;73.96;99007.63;4110042;28;20230;-45
2023/05/30 01:19:12;;;;;;;5.55;2.05;;;;;;;16.56;73.93;99008.72;4111244;28;20211;-45
2023/05/30 01:21:16;;;;;;;4.57;2.17;;;;;;;16.56;73.85;99010.69;4129645;28;20210;-45
2023/05/30 01:23:33;;;;;;;4.13;2.40;;;;;;;16.45;73.97;99003.50;4098090;28;20282;-47
2023/05/30 01:25:59;;;;;;;3.25;2.17;;;;;;;16.46;73.78;98999.63;4112153;28;20241;-46
2023/05/30 01:28:14;;;;;;;3.50;1.90;;;;;;;16.43;73.77;99001.00;4114520;28;20214;-45
2023/05/30 01:30:17;;;;;;;3.60;2.22;;;;;;;16.39;73.76;99002.66;4098223;28;20211;-45
2023/05/30 01:32:19;;;;;;;3.97;2.35;;;;;;;16.39;73.59;99002.66;4111650;28;20206;-45
2023/05/30 01:34:22;;;;;;;3.35;2.30;;;;;;;16.36;73.69;99000.41;4113200;28;20688;-44
2023/05/30 01:36:26;;;;;;;5.22;2.63;;;;;;;16.24;73.99;98994.31;4114026;28;20247;-45
2023/05/30 01:38:28;;;;;;;3.67;2.15;;;;;;;16.22;73.83;98992.97;4113538;28;20266;-45
2023/05/30 01:40:30;;;;;;;4.30;2.05;;;;;;;16.18;74.04;98992.69;4111400;28;20278;-45
2023/05/30 01:42:32;;;;;;;6.78;2.22;;;;;;;16.18;73.87;98989.91;4113361;28;20234;-45
2023/05/30 01:44:42;;;;;;;3.95;2.67;;;;;;;16.17;73.92;98985.47;4112868;28;20623;-45
2023/05/30 01:46:49;;;;;;;3.67;1.50;;;;;;;16.22;73.74;98993.78;4096250;28;20270;-45
2023/05/30 01:49:12;;;;;;;6.28;2.30;;;;;;;16.15;73.80;98993.22;4113067;28;20582;-45
2023/05/30 01:51:15;;;;;;;5.65;2.17;;;;;;;16.16;73.40;98994.06;4113168;28;20305;-45
2023/05/30 01:53:36;;;;;;;3.88;2.35;;;;;;;16.10;73.67;98990.44;4096942;28;20282;-45
2023/05/30 01:55:41;;;;;;;4.00;2.38;;;;;;;15.99;74.09;98991.53;4113145;28;20214;-45
2023/05/30 01:57:46;;;;;;;3.72;1.95;;;;;;;15.81;74.12;99008.59;4112603;28;20207;-45
2023/05/30 01:59:49;;;;;;;4.50;2.05;;;;;;;15.90;73.87;98995.91;4129145;28;20231;-45
2023/05/30 02:01:55;;;;;;;3.58;2.25;;;;;;;15.76;74.28;98994.78;4097298;28;20333;-46
2023/05/30 02:03:58;;;;;;;7.75;2.88;;;;;;;15.86;73.92;99000.34;4111521;28;20262;-45
2023/05/30 02:06:00;;;;;;;3.97;1.85;;;;;;;15.82;74.11;98996.47;4113457;28;20215;-45
2023/05/30 02:08:02;;;;;;;5.10;2.80;;;;;;;15.85;73.54;98987.66;4129551;28;20210;-44
2023/05/30 02:10:05;;;;;;;5.60;2.30;;;;;;;15.74;73.95;98990.63;4113594;28;20218;-45
2023/05/30 02:12:08;;;;;;;3.20;1.88;;;;;;;15.77;73.92;98992.88;4113365;28;20203;-44
2023/05/30 02:14:09;;;;;;;2.92;1.95;;;;;;;15.85;73.57;98989.56;4112707;28;20261;-45
2023/05/30 02:16:12;;;;;;;5.55;2.40;;;;;;;15.72;73.27;98990.09;4105688;28;20219;-44
2023/05/30 02:18:14;;;;;;;5.10;2.40;;;;;;;15.76;73.08;99000.31;4114013;28;20302;-45
2023/05/30 02:20:16;;;;;;;5.10;2.42;;;;;;;15.58;73.52;98998.06;4112189;28;20214;-44
2023/05/30 02:22:18;;;;;;;6.53;1.92;;;;;;;15.36;74.38;98997.38;4096582;28;20744;-45
2023/05/30 02:24:21;;;;;;;4.40;2.03;;;;;;;15.46;74.05;98996.59;4113179;28;20696;-44
2023/05/30 02:26:29;;;;;;;6.45;2.10;;;;;;;15.34;73.80;98991.31;4103901;28;20219;-45
2023/05/30 02:28:30;;;;;;;5.03;2.45;;;;;;;15.20;75.01;99001.16;4113462;28;20214;-46
2023/05/30 02:30:32;;;;;;;6.57;1.98;;;;;;;15.32;74.54;98993.53;4112221;28;20724;-45
2023/05/30 02:32:34;;;;;;;4.60;1.90;;;;;;;15.22;74.76;98998.94;4110671;28;20660;-44
2023/05/30 02:34:36;;;;;;;3.88;2.38;;;;;;;15.17;74.44;98995.34;4114013;28;20289;-45
2023/05/30 02:36:38;;;;;;;6.25;2.70;;;;;;;15.23;74.35;99000.59;4112748;28;20261;-45
2023/05/30 02:38:40;;;;;;;2.88;1.45;;;;;;;15.21;74.21;98997.28;4112519;28;20581;-44
2023/05/30 02:40:42;;;;;;;3.40;1.90;;;;;;;15.24;73.85;98991.22;4112106;28;20206;-46
2023/05/30 02:42:44;;;;;;;3.22;2.58;;;;;;;15.03;74.81;98994.97;4108253;28;20291;-45
2023/05/30 02:44:45;;;;;;;4.65;2.10;;;;;;;15.10;74.52;98995.56;4110815;28;20297;-45
2023/05/30 02:46:47;;;;;;;5.15;2.35;;;;;;;14.88;75.56;99003.16;4113118;28;20214;-44
2023/05/30 02:48:49;;;;;;;4.28;2.60;;;;;;;15.00;75.35;98994.69;4111642;28;20273;-45
2023/05/30 02:50:51;;;;;;;3.92;2.60;;;;;;;14.98;75.05;99002.41;4112310;28;20222;-45
2023/05/30 02:52:52;;;;;;;4.97;2.15;;;;;;;15.01;75.03;99002.69;4111783;28;20285;-45
2023/05/30 02:54:54;;;;;;;5.00;2.15;;;;;;;15.00;74.72;99006.56;4111429;28;20218;-46
2023/05/30 02:56:56;;;;;;;3.47;2.55;;;;;;;14.95;74.48;99001.00;4110445;28;20682;-45
2023/05/30 02:58:59;;;;;;;7.07;2.60;;;;;;;14.95;74.62;99002.91;4111716;28;20277;-44
2023/05/30 03:01:01;;;;;;;3.50;2.05;;;;;;;14.99;74.65;99002.13;4126261;28;20210;-45
2023/05/30 03:03:02;;;;;;;4.00;1.90;;;;;;;15.02;74.65;99009.84;4125757;28;20591;-44
2023/05/30 03:05:05;;;;;;;6.18;2.50;;;;;;;14.72;75.37;99001.41;4127103;28;20503;-44
2023/05/30 03:07:08;;;;;;;4.28;2.30;;;;;;;14.86;75.03;99010.03;4126346;28;20206;-44
2023/05/30 03:09:11;;;;;;;3.22;1.90;;;;;;;14.86;75.32;99010.03;4111022;28;20211;-44
2023/05/30 03:11:12;;;;;;;4.25;2.03;;;;;;;14.89;75.28;99004.81;4111495;28;20206;-45
2023/05/30 03:13:14;;;;;;;3.08;2.20;;;;;;;14.93;75.06;99016.97;4112086;28;20281;-44
2023/05/30 03:15:17;;;;;;;5.22;2.63;;;;;;;14.90;74.82;99011.97;4096302;28;20215;-45
2023/05/30 03:17:18;;;;;;;3.80;1.92;;;;;;;14.80;74.77;99011.09;4109962;28;20557;-44
2023/05/30 03:19:20;;;;;;;2.28;1.80;;;;;;;14.85;74.73;99017.47;4111315;28;20266;-46
2023/05/30 03:21:23;;;;;;;5.50;2.13;;;;;;;14.75;75.01;99020.16;4110709;28;20245;-45
2023/05/30 03:23:24;;;;;;;5.20;2.05;;;;;;;14.85;74.59;99020.25;4112583;28;20265;-45
2023/05/30 03:25:26;;;;;;;7.35;2.22;;;;;;;14.85;74.29;99025.75;4111540;28;20206;-47
2023/05/30 03:27:28;;;;;;;5.32;2.28;;;;;;;14.73;74.61;99022.34;4125760;28;20206;-45
2023/05/30 03:29:31;;;;;;;8.35;2.45;;;;;;;14.52;74.81;99019.69;4113083;28;20269;-46
2023/05/30 03:31:33;;;;;;;2.55;2.00;;;;;;;14.55;74.94;99022.75;4111655;28;20210;-45
2023/05/30 03:33:35;;;;;;;3.15;2.05;;;;;;;14.65;74.93;99022.00;4112122;28;20234;-45
2023/05/30 03:35:36;;;;;;;4.47;2.17;;;;;;;14.69;74.85;99026.72;4112121;28;20684;-46
2023/05/30 03:37:38;;;;;;;3.90;1.60;;;;;;;14.76;74.38;99032.81;4097040;28;20314;-46
2023/05/30 03:39:40;;;;;;;3.83;2.08;;;;;;;14.73;74.26;99019.59;4111911;28;20223;-46
2023/05/30 03:41:41;;;;;;;4.65;2.10;;;;;;;14.74;73.92;99029.53;4112477;28;20214;-46
2023/05/30 03:43:43;;;;;;;4.13;2.20;;;;;;;14.46;74.66;99020.75;4112421;28;20243;-45
2023/05/30 03:45:45;;;;;;;3.67;2.13;;;;;;;14.66;74.57;99023.66;4108014;28;20218;-45
2023/05/30 03:47:46;;;;;;;4.15;2.75;;;;;;;14.70;74.22;99022.88;4109032;28;20580;-45
2023/05/30 03:49:49;;;;;;;3.30;2.30;;;;;;;14.65;74.20;99022.84;4093755;28;20302;-46
2023/05/30 03:51:51;;;;;;;2.97;1.55;;;;;;;14.74;73.74;99024.00;4110671;28;20215;-46
2023/05/30 03:53:53;;;;;;;5.32;2.15;;;;;;;14.66;74.10;99019.00;4107567;28;20822;-46
2023/05/30 03:55:55;;;;;;;3.33;2.33;;;;;;;14.76;73.41;99021.81;4111168;28;20286;-46
2023/05/30 03:57:57;;;;;;;6.80;1.88;;;;;;;14.66;73.47;99021.75;4107728;28;20285;-45
2023/05/30 03:59:58;;;;;;;6.40;2.35;;;;;;;14.63;73.55;99021.44;4107732;28;20210;-46
2023/05/30 04:02:00;;;;;;;4.95;2.50;;;;;;;14.60;74.21;99021.94;4110627;28;20215;-46
2023/05/30 04:04:02;;;;;;;7.57;2.38;;;;;;;14.50;74.04;99028.22;4098605;28;20231;-45
2023/05/30 04:06:08;;;;;;;3.33;2.50;;;;;;;14.54;74.10;99023.84;4113430;28;20296;-45
2023/05/30 04:08:09;;;;;;;3.20;2.33;;;;;;;14.57;74.21;99028.00;4114208;28;20228;-45
2023/05/30 04:10:11;;;;;;;3.78;2.67;;;;;;;14.60;74.49;99022.81;4119470;28;20743;-47
2023/05/30 04:12:13;;;;;;;3.15;1.70;;;;;;;14.52;74.72;99025.19;4129935;28;20210;-45
2023/05/30 04:14:14;;;;;;;3.55;1.73;;;;;;;14.58;74.70;99035.97;4113860;28;20795;-45
2023/05/30 04:16:16;;;;;;;5.10;3.00;;;;;;;14.56;74.50;99029.09;4114237;28;20205;-45
2023/05/30 04:18:18;;;;;;;2.58;2.03;;;;;;;14.45;74.64;99025.44;4113451;28;20258;-47
2023/05/30 04:20:20;;;;;;;5.10;2.55;;;;;;;14.51;74.69;99035.38;4113200;28;20330;-47
2023/05/30 04:22:22;;;;;;;4.78;2.40;;;;;;;14.52;74.84;99036.22;4105920;28;20351;-45
2023/05/30 04:24:24;;;;;;;5.60;3.03;;;;;;;14.46;75.25;99038.09;4113519;28;20207;-46
2023/05/30 04:26:25;;;;;;;3.17;2.20;;;;;;;14.49;75.29;99037.56;4110776;28;20743;-45
2023/05/30 04:28:27;;;;;;;3.63;1.63;;;;;;;14.57;75.18;99039.03;4111519;28;20661;-45
2023/05/30 04:30:29;;;;;;;4.75;2.38;;;;;;;14.40;75.53;99039.16;4110493;28;20242;-45
2023/05/30 04:32:33;;;;;;;4.30;2.03;;;;;;;14.39;75.93;99042.16;4113731;28;20264;-47
2023/05/30 04:34:35;;;;;;;5.78;2.30;;;;;;;14.09;75.98;99037.16;4111738;28;20242;-45
2023/05/30 04:36:38;;;;;;;2.65;2.03;;;;;;;14.02;77.28;99047.53;4111535;28;20239;-45
2023/05/30 04:38:39;;;;;;;3.47;2.22;;;;;;;13.84;76.31;99045.13;4113151;28;20554;-45
2023/05/30 04:40:42;;;;;;;7.18;2.13;;;;;;;13.88;76.74;99050.94;4113735;28;20207;-46
2023/05/30 04:42:51;;;;;;;5.13;2.15;;;;;;;14.09;75.64;99052.84;4112449;28;20231;-45
2023/05/30 04:44:54;;;;;;;6.50;2.17;;;;;;;14.02;75.97;99055.81;4112537;28;20305;-48
2023/05/30 04:46:55;;;;;;;6.93;3.40;;;;;;;13.84;76.04;99056.13;4111145;28;20277;-46
2023/05/30 04:49:00;;;;;;;4.07;2.40;;;;;;;14.13;75.25;99060.34;4098460;28;20211;-45
2023/05/30 04:51:03;;;;;;;5.30;2.70;;;;;;;14.22;75.20;99058.78;4110808;28;20634;-46
2023/05/30 04:53:05;;;;;;;4.72;2.40;;;;;;;14.36;74.62;99057.28;4106671;28;20234;-46
2023/05/30 04:55:08;;;;;;;3.67;2.20;;;;;;;14.27;74.66;99061.59;4108554;28;20215;-45
2023/05/30 04:57:09;;;;;;;5.63;2.40;;;;;;;14.32;74.50;99052.56;4122243;28;20285;-45
2023/05/30 04:59:11;;;;;;;7.53;2.22;;;;;;;14.33;74.09;99056.97;4106799;28;20202;-45
2023/05/30 05:01:13;;;;;;;5.05;2.15;;;;;;;14.38;74.81;99062.53;4109994;28;20246;-45
2023/05/30 05:03:15;;;;;;;4.00;2.08;;;;;;;14.46;74.38;99060.13;4104381;28;20709;-45
2023/05/30 05:05:17;;;;;;;4.88;2.13;;;;;;;14.54;74.64;99067.91;4126682;28;20206;-45
2023/05/30 05:07:19;;;;;;;2.70;1.52;;;;;;;14.67;74.12;99061.97;4112504;28;20609;-46
2023/05/30 05:09:34;;;;;;;4.72;2.20;;;;;;;14.77;73.26;99062.03;4122515;28;20206;-47
2023/05/30 05:11:36;;;;;;;12.15;1.73;;;;;;;14.69;73.47;99059.78;4108926;28;20206;-47
2023/05/30 05:13:38;;;;;;;5.20;2.45;;;;;;;14.55;73.70;99069.56;4115983;28;20716;-45
2023/05/30 05:15:40;;;;;;;3.05;2.08;;;;;;;14.57;74.04;99072.88;4110428;28;20245;-46
2023/05/30 05:17:43;;;;;;;7.07;2.45;;;;;;;14.74;73.27;99078.25;4111222;28;20203;-45
2023/05/30 05:19:44;;;;;;;4.82;2.13;;;;;;;14.52;73.91;99072.03;4113342;28;20242;-45
2023/05/30 05:21:46;;;;;;;8.15;2.25;;;;;;;14.59;73.12;99081.75;4108569;28;20204;-45
2023/05/30 05:23:48;;;;;;;3.53;1.88;;;;;;;14.58;73.10;99080.06;4110869;28;20270;-45
2023/05/30 05:25:50;;;;;;;2.67;1.67;;;;;;;14.65;72.75;99080.69;4107992;28;20222;-45
2023/05/30 05:27:52;;;;;;;3.83;2.13;;;;;;;14.76;72.57;99082.41;4108847;28;20663;-44
2023/05/30 05:29:53;;;;;;;5.57;1.92;;;;;;;14.80;73.14;99078.06;4112519;28;20215;-46
2023/05/30 05:31:57;;;;;;;3.58;2.35;;;;;;;14.89;72.08;99073.72;4096409;28;20699;-45
2023/05/30 05:33:59;;;;;;;5.53;1.98;;;;;;;15.04;71.99;99084.84;4113061;28;20226;-46
2023/05/30 05:36:06;;;;;;;5.47;2.50;;;;;;;15.02;71.76;99087.03;4107021;28;20238;-45
2023/05/30 05:38:08;;;;;;;5.75;2.30;;;;;;;15.00;73.59;99083.72;4113361;28;20202;-45
2023/05/30 05:40:10;;;;;;;5.68;2.22;;;;;;;15.18;73.77;99091.59;4094370;28;20207;-45
2023/05/30 05:42:12;;;;;;;4.85;1.92;;;;;;;15.30;72.39;99089.44;4126413;28;20212;-45
2023/05/30 05:44:14;;;;;;;6.15;2.30;;;;;;;15.41;73.57;99093.97;4126121;28;20230;-47
2023/05/30 05:46:16;;;;;;;11.02;2.20;;;;;;;15.52;72.65;99092.94;4095211;28;20270;-45
2023/05/30 05:48:18;;;;;;;9.05;2.15;;;;;;;15.65;72.30;99095.22;4113130;28;20695;-45
2023/05/30 05:50:20;;;;;;;11.82;2.80;;;;;;;15.72;71.29;99103.22;4096385;28;20207;-45
2023/05/30 05:52:24;;;;;;;21.23;2.67;;;;;;;15.78;72.00;99104.91;4113151;28;20712;-45
2023/05/30 05:54:25;;;;;;;10.20;2.13;;;;;;;15.86;72.20;99105.22;4113407;28;20475;-45
2023/05/30 05:56:27;;;;;;;7.25;1.83;;;;;;;15.91;70.63;99102.47;4111509;28;20293;-45
2023/05/30 05:58:29;;;;;;;5.60;2.33;;;;;;;16.00;71.94;99094.50;4112226;28;20214;-47
2023/05/30 06:00:34;;;;;;;3.75;1.98;;;;;;;16.05;70.38;99103.66;4111744;28;20241;-46
2023/05/30 06:02:36;;;;;;;5.30;2.20;;;;;;;16.17;70.37;99095.94;4105896;28;20297;-45
2023/05/30 06:04:38;;;;;;;3.72;2.05;;;;;;;16.28;70.29;99108.69;4110913;28;20234;-45
2023/05/30 06:06:40;;;;;;;13.15;2.40;;;;;;;16.42;70.85;99101.56;4108342;28;20203;-45
2023/05/30 06:08:45;;;;;;;5.03;2.40;;;;;;;16.54;69.37;99106.81;4111829;28;20214;-45
2023/05/30 06:10:47;;;;;;;8.15;2.13;;;;;;;16.53;68.28;99103.25;4125974;28;20218;-46
2023/05/30 06:12:51;;;;;;;4.10;2.20;;;;;;;16.77;67.33;99096.06;4109361;28;20238;-45
2023/05/30 06:14:53;;;;;;;7.28;2.08;;;;;;;16.84;67.32;99099.38;4110425;28;20297;-45
2023/05/30 06:16:55;;;;;;;6.68;1.88;;;;;;;16.88;67.25;99097.75;4123533;28;20237;-46
2023/05/30 06:18:57;;;;;;;14.93;2.25;;;;;;;17.08;66.88;99097.75;4110392;28;20215;-46
2023/05/30 06:21:10;;;;;;;8.45;2.28;;;;;;;17.12;65.12;99104.38;4111465;28;20593;-46
2023/05/30 06:23:12;;;;;;;4.60;1.90;;;;;;;17.31;65.74;99102.72;4086370;28;20238;-46
2023/05/30 06:25:15;;;;;;;8.35;2.42;;;;;;;17.28;64.11;99098.56;4108393;28;20209;-46
2023/05/30 06:27:16;;;;;;;4.75;1.95;;;;;;;17.14;64.96;99102.16;4101477;28;20258;-46
2023/05/30 06:29:18;;;;;;;8.27;1.95;;;;;;;16.88;65.96;99100.50;4103859;28;20265;-46
2023/05/30 06:31:20;;;;;;;8.75;2.60;;;;;;;17.05;66.41;99106.59;4112788;28;20330;-46
2023/05/30 06:33:22;;;;;;;3.70;2.28;;;;;;;16.73;65.50;99102.44;4109711;28;20215;-46
2023/05/30 06:35:24;;;;;;;4.82;1.80;;;;;;;16.53;65.52;99106.00;4126552;28;20365;-46
2023/05/30 06:37:26;;;;;;;3.22;1.67;;;;;;;16.62;66.81;99098.84;4112187;28;20207;-45
2023/05/30 06:39:27;;;;;;;6.35;1.50;;;;;;;16.38;66.34;99108.75;4111261;28;20339;-46
2023/05/30 06:41:29;;;;;;;6.35;2.30;;;;;;;16.57;66.90;99115.41;4111148;28;20207;-46
2023/05/30 06:43:31;;;;;;;5.35;1.67;;;;;;;16.53;66.19;99103.25;4106071;28;20286;-46
2023/05/30 06:45:34;;;;;;;4.30;2.10;;;;;;;16.74;66.73;99106.84;4108721;28;20202;-47
2023/05/30 06:47:40;;;;;;;5.82;1.80;;;;;;;16.74;67.69;99104.09;4095141;28;20764;-46
2023/05/30 06:49:45;;;;;;;4.13;2.40;;;;;;;16.88;67.51;99114.34;4108234;28;20203;-46
2023/05/30 06:51:47;;;;;;;6.60;2.47;;;;;;;17.02;67.00;99118.19;4111858;28;20207;-46
2023/05/30 06:53:55;;;;;;;6.18;1.98;;;;;;;17.08;66.16;99124.59;4109008;28;20226;-46
2023/05/30 06:55:57;;;;;;;9.27;3.28;;;;;;;16.96;65.56;99126.78;4112311;28;20681;-45
2023/05/30 06:57:58;;;;;;;4.80;1.85;;;;;;;17.08;66.40;99125.41;4112269;28;20624;-46
2023/05/30 07:00:00;;;;;;;4.28;2.30;;;;;;;17.09;67.00;99121.53;4097928;28;20265;-46
2023/05/30 07:02:03;;;;;;;3.90;1.80;;;;;;;17.28;66.23;99114.31;4108647;28;20214;-46
2023/05/30 07:04:05;;;;;;;4.32;1.98;;;;;;;17.31;65.98;99119.31;4112376;28;20231;-45
2023/05/30 07:06:07;;;;;;;3.53;1.70;;;;;;;17.50;65.78;99124.00;4110913;28;20558;-47
2023/05/30 07:08:18;;;;;;;8.13;2.30;;;;;;;17.80;65.00;99123.09;4111845;28;20629;-46
2023/05/30 07:10:20;;;;;;;3.80;2.15;;;;;;;17.72;63.84;99123.69;4125571;28;20252;-46
2023/05/30 07:12:22;;;;;;;5.90;2.00;;;;;;;18.00;64.10;99129.41;4110316;28;20553;-47
2023/05/30 07:14:26;;;;;;;3.90;1.83;;;;;;;18.24;64.53;99124.03;4109123;28;20671;-46
2023/05/30 07:16:39;;;;;;;3.90;1.55;;;;;;;18.30;62.08;99123.75;4111182;28;20206;-47
2023/05/30 07:18:41;;;;;;;4.68;1.77;;;;;;;18.38;62.75;99116.78;4104528;28;20554;-48
2023/05/30 07:20:45;;;;;;;6.70;2.00;;;;;;;18.54;63.28;99118.34;4110000;28;20210;-46
2023/05/30 07:22:47;;;;;;;5.47;2.95;;;;;;;18.16;62.16;99116.28;4108702;28;20245;-46
2023/05/30 07:25:01;;;;;;;6.47;1.90;;;;;;;18.37;62.29;99124.25;4110241;28;20723;-46
2023/05/30 07:27:05;;;;;;;7.35;2.63;;;;;;;18.12;60.30;99126.31;4105536;28;20270;-46
2023/05/30 07:29:07;;;;;;;3.55;2.45;;;;;;;18.24;62.44;99124.03;4110848;28;20221;-46
2023/05/30 07:31:15;;;;;;;4.88;2.83;;;;;;;18.64;61.39;99126.59;4111341;28;20205;-46
2023/05/30 07:33:27;;;;;;;6.30;2.63;;;;;;;18.81;58.34;99127.03;4111926;28;20238;-45
2023/05/30 07:35:30;;;;;;;7.78;2.97;;;;;;;18.60;56.25;99122.75;4110920;28;20210;-45
2023/05/30 07:37:32;;;;;;;4.78;2.25;;;;;;;18.90;55.94;99123.34;4110618;28;20209;-45
2023/05/30 07:39:34;;;;;;;3.80;1.55;;;;;;;19.13;55.19;99121.78;4094272;28;20215;-46
2023/05/30 07:41:53;;;;;;;3.20;2.15;;;;;;;18.78;53.46;99133.16;4094290;28;20661;-45
2023/05/30 07:43:55;;;;;;;7.32;2.33;;;;;;;18.56;51.86;99130.81;4112271;28;20241;-45
2023/05/30 07:46:00;;;;;;;3.92;1.52;;;;;;;18.31;51.61;99130.13;4112636;28;20665;-45
2023/05/30 07:48:05;;;;;;;6.28;2.05;;;;;;;18.69;53.31;99129.31;4114181;28;20215;-45
2023/05/30 07:50:08;;;;;;;3.88;1.98;;;;;;;18.71;52.38;99127.13;4107584;28;20289;-46
2023/05/30 07:52:10;;;;;;;3.90;1.80;;;;;;;18.38;52.21;99120.38;4113604;28;20249;-45
2023/05/30 07:54:16;;;;;;;3.60;1.63;;;;;;;18.43;51.59;99122.28;4115552;28;20282;-45
2023/05/30 07:56:18;;;;;;;6.25;1.80;;;;;;;18.10;52.25;99122.97;4114303;28;20212;-45
2023/05/30 07:58:26;;;;;;;3.70;1.90;;;;;;;18.22;53.59;99126.25;4099579;28;20270;-46
2023/05/30 08:00:28;;;;;;;4.30;2.38;;;;;;;18.65;52.07;99131.03;4130889;28;20729;-47
2023/05/30 08:02:30;;;;;;;10.10;2.72;;;;;;;18.81;51.89;99135.34;4107484;28;20325;-45
2023/05/30 08:04:37;;;;;;;5.15;2.05;;;;;;;18.82;51.17;99125.91;4115049;28;20259;-45
2023/05/30 08:06:42;;;;;;;5.38;2.53;;;;;;;18.71;51.88;99125.16;4111975;28;20207;-45
2023/05/30 08:09:14;;;;;;;4.93;2.25;;;;;;;18.70;52.74;99125.44;4111162;28;20229;-45
2023/05/30 08:11:15;;;;;;;5.47;2.20;;;;;;;18.49;52.55;99133.06;4114452;28;20608;-45
2023/05/30 08:13:26;;;;;;;4.18;1.98;;;;;;;18.02;53.13;99131.88;4115227;28;20237;-45
2023/05/30 08:15:28;;;;;;;4.18;1.70;;;;;;;17.97;53.59;99129.13;4109601;28;20267;-45
2023/05/30 08:17:40;;;;;;;7.97;2.08;;;;;;;18.47;53.66;99129.75;4106580;28;20781;-45
2023/05/30 08:19:43;;;;;;;5.22;1.73;;;;;;;18.89;53.99;99137.50;4110942;28;20457;-45
2023/05/30 08:21:48;;;;;;;3.88;2.08;;;;;;;18.65;53.84;99122.72;4111008;28;20207;-44
2023/05/30 08:23:58;;;;;;;6.10;2.88;;;;;;;18.87;54.49;99123.94;4113669;28;20305;-45
2023/05/30 08:26:08;;;;;;;5.70;2.45;;;;;;;19.23;53.12;99122.56;4115759;28;20217;-45
2023/05/30 08:28:11;;;;;;;5.18;2.58;;;;;;;18.97;52.59;99120.28;4114799;28;20211;-45
2023/05/30 08:30:13;;;;;;;6.82;3.30;;;;;;;18.95;52.61;99125.25;4116738;28;20205;-45
2023/05/30 08:32:14;;;;;;;3.72;2.22;;;;;;;19.22;52.04;99122.84;4099678;28;20213;-45
2023/05/30 08:34:16;;;;;;;4.72;2.25;;;;;;;19.44;52.09;99132.34;4131515;28;20237;-47
2023/05/30 08:36:22;;;;;;;5.65;1.80;;;;;;;19.65;51.75;99127.44;4116470;28;20263;-46
2023/05/30 08:38:24;;;;;;;5.25;3.20;;;;;;;19.13;51.01;99132.88;4120450;28;20231;-46
2023/05/30 08:40:29;;;;;;;5.93;2.20;;;;;;;19.10;50.73;99123.19;4115579;28;20302;-45
2023/05/30 08:42:31;;;;;;;3.97;1.50;;;;;;;19.78;51.45;99119.22;4115511;28;20731;-45
2023/05/30 08:44:33;;;;;;;3.95;1.65;;;;;;;19.84;49.36;99128.34;4119046;28;20215;-46
2023/05/30 08:46:38;;;;;;;3.63;2.20;;;;;;;19.62;50.48;99130.78;4113947;28;20211;-45
2023/05/30 08:48:45;;;;;;;4.20;2.10;;;;;;;20.18;50.61;99129.06;4114348;28;20245;-45
2023/05/30 08:50:47;;;;;;;5.72;2.47;;;;;;;20.46;49.67;99119.78;4128931;28;20220;-46
2023/05/30 08:52:51;;;;;;;6.68;2.17;;;;;;;19.91;48.85;99117.69;4130394;28;20217;-45
2023/05/30 08:54:53;;;;;;;5.10;2.03;;;;;;;20.14;49.29;99123.28;4100308;28;20255;-45
2023/05/30 08:57:34;;;;;;;6.25;2.40;;;;;;;20.40;49.07;99115.41;4127293;28;20206;-44
2023/05/30 08:59:36;;;;;;;4.53;1.60;;;;;;;20.56;50.54;99125.19;4101976;28;20202;-45
2023/05/30 09:01:38;;;;;;;4.55;2.28;;;;;;;20.29;48.78;99113.91;4099516;29;20687;-45
2023/05/30 09:03:42;;;;;;;4.97;2.33;;;;;;;20.19;47.88;99117.63;4103936;28;20265;-45
2023/05/30 09:05:45;;;;;;;2.60;1.83;;;;;;;20.17;50.25;99113.53;4113383;28;20198;-45
2023/05/30 09:07:48;;;;;;;4.53;2.38;;;;;;;20.35;48.94;99118.25;4098715;28;20215;-46
2023/05/30 09:09:50;;;;;;;7.47;2.40;;;;;;;20.33;47.95;99115.81;4113611;28;20214;-46
2023/05/30 09:11:54;;;;;;;4.38;1.98;;;;;;;20.82;48.12;99112.56;4114145;28;20214;-45
2023/05/30 09:13:56;;;;;;;5.93;2.10;;;;;;;20.90;46.97;99115.53;4116616;28;20241;-46
2023/05/30 09:16:02;;;;;;;8.57;2.40;;;;;;;20.41;47.34;99109.56;4116693;28;20214;-46
2023/05/30 09:18:13;;;;;;;3.80;1.92;;;;;;;20.55;47.55;99112.41;4114139;28;20297;-45
2023/05/30 09:20:16;;;;;;;5.65;2.05;;;;;;;20.81;48.26;99110.91;4115032;28;20768;-46
2023/05/30 09:22:19;;;;;;;3.38;1.83;;;;;;;21.10;47.57;99108.81;4115534;28;20245;-45
2023/05/30 09:24:23;;;;;;;5.07;2.25;;;;;;;21.29;48.33;99117.94;4105926;28;20234;-45
2023/05/30 09:26:25;;;;;;;5.78;2.30;;;;;;;21.35;48.13;99108.38;4093339;28;20211;-45
2023/05/30 09:28:28;;;;;;;3.45;1.80;;;;;;;21.02;46.47;99112.28;4110322;28;20615;-45
2023/05/30 09:30:30;;;;;;;3.53;1.98;;;;;;;21.66;47.48;99118.72;4111751;28;20199;-45
2023/05/30 09:32:34;;;;;;;3.25;1.63;;;;;;;21.87;46.67;99111.59;4111762;28;20229;-48
2023/05/30 09:34:36;;;;;;;4.07;2.10;;;;;;;21.80;46.81;99113.13;4111457;28;20210;-45
2023/05/30 09:36:38;;;;;;;5.43;2.33;;;;;;;21.46;45.74;99113.47;4112955;28;20217;-45
2023/05/30 09:38:58;;;;;;;5.53;2.22;;;;;;;21.28;45.76;99122.72;4109621;28;20202;-45
2023/05/30 09:41:04;;;;;;;5.13;2.45;;;;;;;21.25;46.60;99116.91;4107296;28;20289;-46
2023/05/30 09:43:05;;;;;;;4.32;1.98;;;;;;;21.70;46.36;99118.94;4108450;28;20246;-45